createdAt,value
2023-01-19T00:00:44.470Z,2.53
2023-01-19T00:02:48.226Z,2.55
2023-01-19T00:04:51.809Z,2.51
2023-01-19T00:06:55.118Z,2.57
2023-01-19T00:08:58.448Z,2.63
2023-01-19T00:11:02.041Z,2.65
2023-01-19T00:13:06.720Z,2.67
2023-01-19T00:15:11.042Z,2.52
2023-01-19T00:17:14.647Z,2.57
2023-01-19T00:19:18.045Z,2.44
2023-01-19T00:21:22.592Z,2.60
2023-01-19T00:23:25.978Z,2.60
2023-01-19T00:25:29.564Z,2.63
2023-01-19T00:27:35.002Z,2.54
2023-01-19T00:29:39.693Z,2.50
2023-01-19T00:31:43.169Z,2.57
2023-01-19T00:33:48.801Z,2.45
2023-01-19T00:35:52.609Z,2.43
2023-01-19T00:37:57.097Z,2.39
2023-01-19T00:40:00.442Z,2.48
2023-01-19T00:42:21.446Z,2.59
2023-01-19T00:44:24.819Z,2.72
2023-01-19T00:46:29.494Z,2.67
2023-01-19T00:48:32.817Z,2.71
2023-01-19T00:50:36.458Z,2.74
2023-01-19T00:52:40.481Z,2.78
2023-01-19T00:54:43.839Z,2.88
2023-01-19T00:56:47.277Z,2.93
2023-01-19T00:58:50.913Z,2.87
2023-01-19T01:00:57.435Z,2.81
2023-01-19T01:03:02.643Z,2.74
2023-01-19T01:05:06.976Z,2.60
2023-01-19T01:07:10.322Z,2.59
2023-01-19T01:09:13.812Z,2.56
2023-01-19T01:11:17.198Z,2.57
2023-01-19T01:13:23.636Z,2.54
2023-01-19T01:15:29.868Z,2.56
2023-01-19T01:17:33.235Z,2.56
2023-01-19T01:19:38.420Z,2.35
2023-01-19T01:21:41.855Z,2.52
2023-01-19T01:23:45.217Z,2.52
2023-01-19T01:25:48.515Z,2.59
2023-01-19T01:27:52.067Z,2.63
2023-01-19T01:29:55.407Z,2.68
2023-01-19T01:31:58.761Z,2.72
2023-01-19T01:34:02.446Z,2.72
2023-01-19T01:36:09.029Z,2.73
2023-01-19T01:38:12.787Z,2.64
2023-01-19T01:40:18.690Z,2.70
2023-01-19T01:42:27.760Z,2.72
2023-01-19T01:44:50.457Z,2.54
2023-01-19T01:46:54.111Z,2.60
2023-01-19T01:49:05.522Z,2.52
2023-01-19T01:51:27.324Z,2.61
2023-01-19T01:53:33.525Z,2.63
2023-01-19T01:55:39.027Z,2.28
2023-01-19T01:57:46.525Z,2.47
2023-01-19T01:59:51.560Z,2.54
2023-01-19T02:02:14.520Z,2.71
2023-01-19T02:04:19.910Z,2.68
2023-01-19T02:06:25.111Z,2.65
2023-01-19T02:08:52.966Z,2.78
2023-01-19T02:11:14.500Z,2.82
2023-01-19T02:13:21.454Z,2.84
2023-01-19T02:15:24.698Z,2.63
2023-01-19T02:17:28.218Z,2.71
2023-01-19T02:19:40.393Z,2.75
2023-01-19T02:21:53.447Z,2.72
2023-01-19T02:24:00.342Z,2.63
2023-01-19T02:26:04.702Z,2.66
2023-01-19T02:28:08.428Z,2.60
2023-01-19T02:30:12.711Z,2.72
2023-01-19T02:32:16.110Z,2.73
2023-01-19T02:34:22.649Z,2.68
2023-01-19T02:36:29.347Z,2.82
2023-01-19T02:38:35.063Z,2.89
2023-01-19T02:40:42.795Z,2.72
2023-01-19T02:42:49.360Z,2.73
2023-01-19T02:44:55.729Z,2.71
2023-01-19T02:46:59.081Z,2.58
2023-01-19T02:49:02.675Z,2.66
2023-01-19T02:51:15.506Z,2.73
2023-01-19T02:53:48.591Z,2.71
2023-01-19T02:55:58.113Z,2.73
2023-01-19T02:58:08.392Z,2.76
2023-01-19T03:00:23.283Z,2.64
2023-01-19T03:02:34.614Z,2.58
2023-01-19T03:04:51.611Z,2.58
2023-01-19T03:07:03.697Z,2.57
2023-01-19T03:09:15.471Z,2.63
2023-01-19T03:11:20.629Z,2.63
2023-01-19T03:13:31.878Z,2.49
2023-01-19T03:15:41.851Z,2.54
2023-01-19T03:17:49.696Z,2.34
2023-01-19T03:19:55.059Z,2.37
2023-01-19T03:22:00.989Z,2.22
2023-01-19T03:24:07.752Z,2.23
2023-01-19T03:26:15.896Z,2.11
2023-01-19T03:28:21.867Z,2.19
2023-01-19T03:30:28.862Z,2.22
2023-01-19T03:32:37.199Z,2.24
2023-01-19T03:34:42.955Z,2.13
2023-01-19T03:36:51.696Z,2.03
2023-01-19T03:38:58.846Z,2.27
2023-01-19T03:41:06.769Z,2.25
2023-01-19T03:43:10.776Z,2.43
2023-01-19T03:45:16.258Z,2.31
2023-01-19T03:47:21.030Z,2.36
2023-01-19T03:49:24.776Z,2.25
2023-01-19T03:51:28.459Z,2.38
2023-01-19T03:53:31.738Z,2.41
2023-01-19T03:55:35.893Z,2.36
2023-01-19T03:57:39.324Z,2.21
2023-01-19T03:59:42.656Z,2.40
2023-01-19T04:01:47.615Z,2.48
2023-01-19T04:03:51.111Z,2.51
2023-01-19T04:05:54.539Z,2.51
2023-01-19T04:07:58.002Z,2.36
2023-01-19T04:10:01.337Z,2.39
2023-01-19T04:12:05.551Z,2.51
2023-01-19T04:14:08.906Z,2.48
2023-01-19T04:16:12.594Z,2.56
2023-01-19T04:18:17.329Z,2.51
2023-01-19T04:20:21.680Z,2.58
2023-01-19T04:22:25.322Z,2.36
2023-01-19T04:24:28.678Z,2.28
2023-01-19T04:26:31.946Z,2.53
2023-01-19T04:28:36.980Z,2.45
2023-01-19T04:30:40.348Z,2.31
2023-01-19T04:32:44.191Z,2.40
2023-01-19T04:34:49.096Z,2.58
2023-01-19T04:36:52.408Z,2.62
2023-01-19T04:38:55.749Z,2.47
2023-01-19T04:40:59.056Z,2.52
2023-01-19T04:43:02.644Z,2.58
2023-01-19T04:45:06.887Z,2.54
2023-01-19T04:47:10.282Z,2.38
2023-01-19T04:49:13.960Z,2.31
2023-01-19T04:51:18.682Z,2.33
2023-01-19T04:53:21.960Z,2.12
2023-01-19T04:55:25.864Z,2.01
2023-01-19T04:57:30.042Z,2.14
2023-01-19T04:59:33.542Z,2.13
2023-01-19T05:01:36.986Z,2.01
2023-01-19T05:03:40.868Z,2.13
2023-01-19T05:05:44.200Z,1.95
2023-01-19T05:07:48.883Z,2.00
2023-01-19T05:09:52.284Z,1.97
2023-01-19T05:11:55.563Z,2.05
2023-01-19T05:13:58.914Z,2.19
2023-01-19T05:16:02.431Z,2.18
2023-01-19T05:18:05.867Z,2.16
2023-01-19T05:20:12.244Z,2.32
2023-01-19T05:22:17.277Z,2.28
2023-01-19T05:24:21.985Z,2.38
2023-01-19T05:26:25.420Z,2.18
2023-01-19T05:28:28.864Z,2.04
2023-01-19T05:30:32.352Z,2.12
2023-01-19T05:32:35.700Z,1.91
2023-01-19T05:34:39.064Z,2.08
2023-01-19T05:36:42.472Z,1.92
2023-01-19T05:38:46.029Z,1.81
2023-01-19T05:40:51.016Z,1.70
2023-01-19T05:42:54.346Z,1.57
2023-01-19T05:44:59.430Z,1.72
2023-01-19T05:47:02.767Z,1.66
2023-01-19T05:49:07.341Z,1.68
2023-01-19T05:51:11.065Z,1.57
2023-01-19T05:53:14.545Z,1.63
2023-01-19T05:55:18.066Z,1.65
2023-01-19T05:57:23.015Z,1.62
2023-01-19T05:59:26.323Z,1.62
2023-01-19T06:01:29.657Z,1.77
2023-01-19T06:03:33.162Z,1.72
2023-01-19T06:05:38.393Z,1.58
2023-01-19T06:07:41.860Z,1.49
2023-01-19T06:09:45.142Z,1.39
2023-01-19T06:11:48.607Z,1.24
2023-01-19T06:13:53.587Z,1.08
2023-01-19T06:16:00.180Z,1.26
2023-01-19T06:18:03.584Z,1.43
2023-01-19T06:20:08.128Z,1.32
2023-01-19T06:22:11.439Z,1.67
2023-01-19T06:24:14.916Z,1.61
2023-01-19T06:26:18.244Z,1.50
2023-01-19T06:28:21.584Z,1.55
2023-01-19T06:30:26.998Z,1.59
2023-01-19T06:32:30.947Z,1.47
2023-01-19T06:34:34.336Z,1.53
2023-01-19T06:36:38.436Z,1.64
2023-01-19T06:38:41.844Z,1.52
2023-01-19T06:40:45.778Z,1.21
2023-01-19T06:42:50.120Z,1.24
2023-01-19T06:44:53.400Z,1.54
2023-01-19T06:47:15.655Z,1.73
2023-01-19T06:49:19.556Z,1.76
2023-01-19T06:51:23.016Z,1.84
2023-01-19T06:53:27.962Z,1.64
2023-01-19T06:55:31.312Z,1.68
2023-01-19T06:57:34.714Z,1.57
2023-01-19T06:59:38.059Z,1.68
2023-01-19T07:01:41.516Z,1.61
2023-01-19T07:03:47.048Z,1.31
2023-01-19T07:05:52.675Z,1.43
2023-01-19T07:07:57.127Z,1.53
2023-01-19T07:10:00.502Z,1.57
2023-01-19T07:12:03.913Z,1.64
2023-01-19T07:14:07.185Z,1.52
2023-01-19T07:16:12.557Z,1.57
2023-01-19T07:18:15.811Z,1.70
2023-01-19T07:20:20.784Z,1.54
2023-01-19T07:22:24.120Z,1.55
2023-01-19T07:24:27.469Z,1.66
2023-01-19T07:26:30.952Z,1.84
2023-01-19T07:28:34.371Z,1.96
2023-01-19T07:30:37.809Z,1.88
2023-01-19T07:32:42.541Z,1.76
2023-01-19T07:34:45.859Z,1.76
2023-01-19T07:36:50.679Z,1.86
2023-01-19T07:38:53.986Z,1.69
2023-01-19T07:41:02.067Z,1.67
2023-01-19T07:43:05.438Z,1.94
2023-01-19T07:45:09.979Z,1.99
2023-01-19T07:47:14.145Z,2.08
2023-01-19T07:49:17.676Z,2.09
2023-01-19T07:51:20.989Z,1.87
2023-01-19T07:53:25.769Z,1.89
2023-01-19T07:55:29.419Z,1.96
2023-01-19T07:57:32.785Z,1.93
2023-01-19T07:59:36.126Z,1.90
2023-01-19T08:01:40.475Z,1.89
2023-01-19T08:03:43.869Z,1.81
2023-01-19T08:05:51.563Z,1.86
2023-01-19T08:07:56.263Z,2.02
2023-01-19T08:10:00.974Z,2.09
2023-01-19T08:12:04.925Z,2.08
2023-01-19T08:14:08.693Z,2.20
2023-01-19T08:16:12.075Z,2.21
2023-01-19T08:18:15.660Z,2.11
2023-01-19T08:20:19.121Z,2.16
2023-01-19T08:22:22.503Z,2.27
2023-01-19T08:24:28.541Z,2.34
2023-01-19T08:26:35.272Z,2.38
2023-01-19T08:28:38.702Z,2.51
2023-01-19T08:30:44.509Z,2.39
2023-01-19T08:32:47.907Z,2.39
2023-01-19T08:34:51.314Z,2.14
2023-01-19T08:36:54.758Z,2.32
2023-01-19T08:38:58.161Z,2.50
2023-01-19T08:41:01.476Z,2.62
2023-01-19T08:43:08.227Z,2.66
2023-01-19T08:45:12.130Z,2.78
2023-01-19T08:47:17.175Z,2.75
2023-01-19T08:49:20.636Z,2.80
2023-01-19T08:51:24.110Z,2.71
2023-01-19T08:53:27.464Z,2.80
2023-01-19T08:55:31.477Z,2.64
2023-01-19T08:57:34.796Z,2.52
2023-01-19T08:59:39.527Z,2.28
2023-01-19T09:01:42.993Z,2.43
2023-01-19T09:03:46.806Z,2.23
2023-01-19T09:05:50.912Z,2.38
2023-01-19T09:07:54.241Z,2.39
2023-01-19T09:09:57.824Z,1.74
2023-01-19T09:12:01.125Z,2.24
2023-01-19T09:14:05.612Z,2.31
2023-01-19T09:16:12.611Z,2.45
2023-01-19T09:18:19.821Z,2.48
2023-01-19T09:20:23.455Z,2.49
2023-01-19T09:22:26.812Z,2.41
2023-01-19T09:24:30.098Z,2.49
2023-01-19T09:26:33.390Z,2.56
2023-01-19T09:28:38.148Z,2.63
2023-01-19T09:30:42.977Z,2.65
2023-01-19T09:32:47.617Z,2.81
2023-01-19T09:34:51.150Z,2.78
2023-01-19T09:36:54.648Z,2.76
2023-01-19T09:38:57.996Z,2.69
2023-01-19T09:41:02.140Z,2.71
2023-01-19T09:43:14.620Z,2.74
2023-01-19T09:45:23.838Z,2.66
2023-01-19T09:47:30.721Z,2.89
2023-01-19T09:49:42.203Z,2.95
2023-01-19T09:51:48.143Z,2.88
2023-01-19T09:53:57.332Z,3.07
2023-01-19T09:56:01.013Z,3.01
2023-01-19T09:58:10.865Z,3.18
2023-01-19T10:00:16.403Z,3.09
2023-01-19T10:02:29.255Z,3.00
2023-01-19T10:04:39.820Z,2.78
2023-01-19T10:06:43.433Z,2.70
2023-01-19T10:09:00.033Z,2.73
2023-01-19T10:11:03.397Z,2.83
2023-01-19T10:13:26.590Z,2.84
2023-01-19T10:15:40.586Z,2.66
2023-01-19T10:17:53.583Z,2.77
2023-01-19T10:19:59.531Z,2.81
2023-01-19T10:22:13.141Z,2.89
2023-01-19T10:24:22.339Z,2.88
2023-01-19T10:26:27.058Z,2.98
2023-01-19T10:28:31.082Z,2.70
2023-01-19T10:30:36.070Z,2.76
2023-01-19T10:32:40.193Z,2.85
2023-01-19T10:34:43.972Z,2.76
2023-01-19T10:36:52.762Z,2.64
2023-01-19T10:38:56.171Z,2.92
2023-01-19T10:41:04.968Z,2.92
2023-01-19T10:43:38.080Z,2.86
2023-01-19T10:45:41.595Z,2.95
2023-01-19T10:47:47.057Z,3.01
2023-01-19T10:49:50.653Z,3.02
2023-01-19T10:51:56.502Z,2.99
2023-01-19T10:54:02.404Z,2.81
2023-01-19T10:56:17.677Z,2.96
2023-01-19T10:58:30.100Z,3.03
2023-01-19T11:00:37.572Z,3.11
2023-01-19T11:02:51.360Z,3.03
2023-01-19T11:04:56.888Z,3.22
2023-01-19T11:07:15.563Z,3.27
2023-01-19T11:09:20.630Z,3.28
2023-01-19T11:11:25.367Z,3.22
2023-01-19T11:13:28.983Z,2.93
2023-01-19T11:15:35.729Z,3.30
2023-01-19T11:17:48.157Z,3.27
2023-01-19T11:19:57.461Z,3.40
2023-01-19T11:22:21.609Z,3.49
2023-01-19T11:24:25.165Z,3.57
2023-01-19T11:26:31.264Z,3.60
2023-01-19T11:28:37.435Z,3.60
2023-01-19T11:30:55.555Z,3.41
2023-01-19T11:33:00.715Z,3.38
2023-01-19T11:35:19.449Z,3.41
2023-01-19T11:37:34.461Z,3.49
2023-01-19T11:39:48.962Z,3.53
2023-01-19T11:41:56.200Z,3.49
2023-01-19T11:44:03.831Z,3.61
2023-01-19T11:46:07.324Z,3.58
2023-01-19T11:48:21.687Z,3.55
2023-01-19T11:50:30.247Z,3.58
2023-01-19T11:52:42.899Z,3.48
2023-01-19T11:54:50.569Z,3.46
2023-01-19T11:56:56.637Z,3.57
2023-01-19T11:58:59.959Z,3.55
2023-01-19T12:01:08.174Z,3.59
2023-01-19T12:03:19.168Z,3.62
2023-01-19T12:05:24.504Z,3.44
2023-01-19T12:07:32.039Z,3.28
2023-01-19T12:09:42.844Z,3.25
2023-01-19T12:11:51.894Z,3.44
2023-01-19T12:13:55.644Z,3.48
2023-01-19T12:16:02.349Z,3.47
2023-01-19T12:18:08.529Z,3.17
2023-01-19T12:20:25.759Z,3.38
2023-01-19T12:22:36.592Z,3.43
2023-01-19T12:24:47.384Z,3.56
2023-01-19T12:26:54.984Z,3.72
2023-01-19T12:29:04.184Z,3.79
2023-01-19T12:31:08.326Z,3.79
2023-01-19T12:33:37.446Z,3.74
2023-01-19T12:35:59.504Z,3.61
2023-01-19T12:38:22.975Z,3.59
2023-01-19T12:40:31.259Z,3.79
2023-01-19T12:42:35.125Z,3.88
2023-01-19T12:44:38.652Z,3.59
2023-01-19T12:46:43.618Z,3.67
2023-01-19T12:48:47.092Z,3.69
2023-01-19T12:50:50.555Z,3.63
2023-01-19T12:52:57.385Z,3.67
2023-01-19T12:55:07.474Z,3.68
2023-01-19T12:57:22.061Z,3.70
2023-01-19T12:59:27.422Z,3.82
2023-01-19T13:01:31.179Z,3.79
2023-01-19T13:03:59.260Z,3.87
2023-01-19T13:06:02.635Z,3.35
2023-01-19T13:08:25.716Z,3.99
2023-01-19T13:11:22.488Z,3.87
2023-01-19T13:13:29.895Z,3.91
2023-01-19T13:15:36.497Z,3.72
2023-01-19T13:17:50.836Z,3.82
2023-01-19T13:20:02.987Z,3.94
2023-01-19T13:22:43.730Z,4.06
2023-01-19T13:25:06.906Z,4.11
2023-01-19T13:27:14.065Z,3.98
2023-01-19T13:29:26.070Z,4.05
2023-01-19T13:31:35.723Z,4.11
2023-01-19T13:33:46.375Z,4.20
2023-01-19T13:35:55.549Z,4.10
2023-01-19T13:38:01.548Z,3.91
2023-01-19T13:40:05.987Z,3.84
2023-01-19T13:42:16.612Z,3.88
2023-01-19T13:44:24.877Z,3.74
2023-01-19T13:46:29.762Z,3.84
2023-01-19T13:48:33.962Z,3.53
2023-01-19T13:50:38.629Z,3.70
2023-01-19T13:52:44.553Z,3.62
2023-01-19T13:54:53.210Z,3.49
2023-01-19T13:56:56.747Z,3.55
2023-01-19T13:59:11.678Z,3.55
2023-01-19T14:01:24.954Z,3.47
2023-01-19T14:03:29.639Z,3.45
2023-01-19T14:05:34.787Z,3.58
2023-01-19T14:07:38.105Z,3.56
2023-01-19T14:09:41.499Z,3.78
2023-01-19T14:11:47.032Z,3.93
2023-01-19T14:13:50.927Z,4.03
2023-01-19T14:15:57.319Z,4.10
2023-01-19T14:18:27.698Z,4.22
2023-01-19T14:20:36.690Z,4.13
2023-01-19T14:22:42.366Z,4.38
2023-01-19T14:24:45.773Z,4.44
2023-01-19T14:26:51.244Z,4.44
2023-01-19T14:28:55.528Z,4.38
2023-01-19T14:31:00.740Z,4.15
2023-01-19T14:33:04.282Z,4.28
2023-01-19T14:35:24.983Z,4.26
2023-01-19T14:37:30.403Z,4.23
2023-01-19T14:39:36.151Z,4.27
2023-01-19T14:41:47.894Z,4.19
2023-01-19T14:43:51.493Z,4.03
2023-01-19T14:45:55.766Z,4.06
2023-01-19T14:48:02.119Z,3.93
2023-01-19T14:50:22.213Z,3.91
2023-01-19T14:52:29.525Z,3.96
2023-01-19T14:54:36.832Z,3.22
2023-01-19T14:56:40.160Z,3.60
2023-01-19T14:58:43.443Z,3.54
2023-01-19T15:00:48.066Z,3.45
2023-01-19T15:02:51.474Z,3.36
2023-01-19T15:04:55.393Z,3.36
2023-01-19T15:07:00.212Z,3.22
2023-01-19T15:09:04.165Z,3.30
2023-01-19T15:11:11.904Z,3.42
2023-01-19T15:13:19.933Z,3.42
2023-01-19T15:15:31.155Z,3.42
2023-01-19T15:17:35.164Z,3.40
2023-01-19T15:19:38.498Z,3.38
2023-01-19T15:21:42.341Z,3.49
2023-01-19T15:23:48.458Z,3.47
2023-01-19T15:25:53.378Z,3.34
2023-01-19T15:27:59.664Z,3.56
2023-01-19T15:30:02.979Z,3.57
2023-01-19T15:32:07.285Z,3.56
2023-01-19T15:34:13.185Z,3.67
2023-01-19T15:36:19.119Z,3.71
2023-01-19T15:38:22.441Z,3.73
2023-01-19T15:40:27.373Z,3.62
2023-01-19T15:42:30.711Z,3.70
2023-01-19T15:44:34.103Z,3.76
2023-01-19T15:46:38.217Z,3.87
2023-01-19T15:48:41.665Z,3.78
2023-01-19T15:50:46.033Z,3.85
2023-01-19T15:52:49.454Z,3.96
2023-01-19T15:54:52.778Z,4.02
2023-01-19T15:56:57.470Z,4.04
2023-01-19T15:59:02.505Z,4.03
2023-01-19T16:01:06.150Z,3.94
2023-01-19T16:03:09.580Z,4.11
2023-01-19T16:05:13.326Z,4.01
2023-01-19T16:07:16.811Z,4.05
2023-01-19T16:09:20.217Z,3.90
2023-01-19T16:11:23.616Z,4.03
2023-01-19T16:13:29.961Z,4.05
2023-01-19T16:15:35.926Z,3.93
2023-01-19T16:17:39.264Z,3.96
2023-01-19T16:19:42.590Z,3.89
2023-01-19T16:21:45.996Z,3.90
2023-01-19T16:23:49.380Z,3.89
2023-01-19T16:26:00.801Z,3.94
2023-01-19T16:28:04.137Z,3.94
2023-01-19T16:30:12.419Z,3.84
2023-01-19T16:32:17.024Z,3.97
2023-01-19T16:34:20.373Z,4.05
2023-01-19T16:36:27.795Z,3.97
2023-01-19T16:38:31.128Z,3.91
2023-01-19T16:40:34.477Z,3.86
2023-01-19T16:42:39.090Z,3.94
2023-01-19T16:44:42.392Z,3.87
2023-01-19T16:46:49.650Z,3.97
2023-01-19T16:48:53.729Z,4.06
2023-01-19T16:51:02.363Z,4.09
2023-01-19T16:53:05.705Z,4.03
2023-01-19T16:55:11.219Z,4.07
2023-01-19T16:57:14.939Z,4.10
2023-01-19T16:59:19.318Z,4.17
2023-01-19T17:01:23.581Z,4.20
2023-01-19T17:03:28.348Z,4.24
2023-01-19T17:05:31.768Z,4.29
2023-01-19T17:07:35.115Z,4.33
2023-01-19T17:09:38.656Z,4.31
2023-01-19T17:11:42.318Z,4.05
2023-01-19T17:13:45.732Z,4.09
2023-01-19T17:15:49.199Z,4.10
2023-01-19T17:17:52.559Z,3.99
2023-01-19T17:19:57.607Z,4.11
2023-01-19T17:22:00.919Z,4.14
2023-01-19T17:24:05.173Z,4.16
2023-01-19T17:26:08.694Z,4.13
2023-01-19T17:28:12.142Z,4.09
2023-01-19T17:30:15.938Z,4.09
2023-01-19T17:32:19.350Z,4.01
2023-01-19T17:34:22.688Z,3.87
2023-01-19T17:36:29.076Z,3.81
2023-01-19T17:38:32.388Z,3.72
2023-01-19T17:40:35.792Z,3.59
2023-01-19T17:42:40.940Z,3.81
2023-01-19T17:44:44.204Z,3.90
2023-01-19T17:46:48.530Z,3.99
2023-01-19T17:48:53.201Z,3.98
2023-01-19T17:51:02.696Z,3.80
2023-01-19T17:53:07.498Z,3.71
2023-01-19T17:55:11.408Z,3.57
2023-01-19T17:57:14.871Z,3.66
2023-01-19T17:59:18.187Z,3.69
2023-01-19T18:01:24.005Z,3.62
2023-01-19T18:03:27.313Z,3.70
2023-01-19T18:05:30.632Z,3.57
2023-01-19T18:07:33.974Z,3.51
2023-01-19T18:09:38.679Z,3.54
2023-01-19T18:11:42.728Z,3.54
2023-01-19T18:13:48.058Z,3.39
2023-01-19T18:15:51.700Z,3.29
2023-01-19T18:17:55.070Z,3.30
2023-01-19T18:19:58.494Z,3.09
2023-01-19T18:22:02.306Z,3.37
2023-01-19T18:24:07.005Z,3.43
2023-01-19T18:26:14.862Z,3.53
2023-01-19T18:28:18.204Z,3.50
2023-01-19T18:30:22.392Z,3.53
2023-01-19T18:32:27.190Z,3.41
2023-01-19T18:34:30.593Z,3.26
2023-01-19T18:36:34.240Z,3.31
2023-01-19T18:38:38.874Z,3.20
2023-01-19T18:40:42.200Z,3.50
2023-01-19T18:42:47.045Z,3.41
2023-01-19T18:44:50.337Z,3.53
2023-01-19T18:46:56.660Z,3.44
2023-01-19T18:49:00.243Z,3.58
2023-01-19T18:51:07.188Z,3.71
2023-01-19T18:53:10.593Z,3.84
2023-01-19T18:55:14.026Z,3.90
2023-01-19T18:57:17.794Z,3.95
2023-01-19T18:59:22.641Z,4.03
2023-01-19T19:01:27.592Z,4.04
2023-01-19T19:03:31.130Z,3.94
2023-01-19T19:05:34.520Z,3.92
2023-01-19T19:07:38.488Z,3.89
2023-01-19T19:09:41.906Z,3.72
2023-01-19T19:11:45.200Z,3.73
2023-01-19T19:13:53.202Z,3.59
2023-01-19T19:16:03.807Z,3.67
2023-01-19T19:18:08.888Z,3.71
2023-01-19T19:20:13.520Z,3.64
2023-01-19T19:22:17.129Z,3.73
2023-01-19T19:24:20.629Z,3.77
2023-01-19T19:26:25.119Z,3.19
2023-01-19T19:28:28.394Z,3.65
2023-01-19T19:30:34.267Z,3.64
2023-01-19T19:32:39.337Z,3.66
2023-01-19T19:34:42.988Z,3.68
2023-01-19T19:36:46.367Z,3.74
2023-01-19T19:38:50.548Z,3.81
2023-01-19T19:40:54.507Z,3.76
2023-01-19T19:42:58.902Z,3.84
2023-01-19T19:45:02.434Z,3.74
2023-01-19T19:47:06.006Z,3.77
2023-01-19T19:49:10.853Z,3.68
2023-01-19T19:51:19.085Z,3.68
2023-01-19T19:53:23.723Z,3.76
2023-01-19T19:55:27.072Z,3.76
2023-01-19T19:57:30.444Z,3.71
2023-01-19T19:59:33.925Z,3.70
2023-01-19T20:01:37.445Z,3.67
2023-01-19T20:03:41.120Z,3.70
2023-01-19T20:05:46.127Z,3.60
2023-01-19T20:07:49.489Z,3.57
2023-01-19T20:09:53.505Z,3.56
2023-01-19T20:11:57.002Z,3.57
2023-01-19T20:14:01.652Z,3.53
2023-01-19T20:16:07.289Z,3.55
2023-01-19T20:18:10.737Z,3.60
2023-01-19T20:20:14.603Z,3.51
2023-01-19T20:22:19.474Z,3.48
2023-01-19T20:24:22.786Z,3.41
2023-01-19T20:26:28.486Z,3.41
2023-01-19T20:28:31.946Z,3.49
2023-01-19T20:30:35.367Z,3.30
2023-01-19T20:32:40.314Z,3.49
2023-01-19T20:34:43.807Z,3.62
2023-01-19T20:36:49.784Z,3.62
2023-01-19T20:38:55.653Z,3.70
2023-01-19T20:40:59.276Z,3.62
2023-01-19T20:43:02.656Z,3.68
2023-01-19T20:45:06.570Z,3.77
2023-01-19T20:47:10.881Z,3.20
2023-01-19T20:49:14.430Z,3.79
2023-01-19T20:51:18.759Z,3.81
2023-01-19T20:53:22.339Z,3.80
2023-01-19T20:55:27.081Z,3.80
2023-01-19T20:57:30.487Z,3.78
2023-01-19T20:59:36.804Z,3.76
2023-01-19T21:01:41.040Z,3.75
2023-01-19T21:03:44.720Z,3.74
2023-01-19T21:05:48.368Z,3.50
2023-01-19T21:07:51.898Z,3.68
2023-01-19T21:09:55.307Z,3.68
2023-01-19T21:12:00.110Z,3.64
2023-01-19T21:14:03.508Z,3.67
2023-01-19T21:16:07.816Z,3.62
2023-01-19T21:18:11.284Z,3.62
2023-01-19T21:20:15.121Z,3.59
2023-01-19T21:22:18.510Z,3.57
2023-01-19T21:24:21.893Z,3.63
2023-01-19T21:26:25.251Z,4.69
2023-01-19T21:28:29.927Z,4.71
2023-01-19T21:30:33.430Z,4.42
2023-01-19T21:32:36.955Z,4.18
2023-01-19T21:34:40.514Z,4.01
2023-01-19T21:36:44.618Z,3.36
2023-01-19T21:38:48.129Z,3.88
2023-01-19T21:40:51.604Z,3.80
2023-01-19T21:42:55.054Z,3.80
2023-01-19T21:44:59.740Z,3.76
2023-01-19T21:47:03.040Z,3.70
2023-01-19T21:49:08.611Z,3.57
2023-01-19T21:51:11.931Z,3.33
2023-01-19T21:53:15.526Z,3.25
2023-01-19T21:55:19.009Z,3.48
2023-01-19T21:57:22.337Z,3.41
2023-01-19T21:59:25.977Z,3.34
2023-01-19T22:01:31.412Z,2.78
2023-01-19T22:03:34.804Z,3.34
2023-01-19T22:05:38.281Z,3.21
2023-01-19T22:07:41.576Z,3.01
2023-01-19T22:09:44.841Z,2.93
2023-01-19T22:11:48.162Z,3.03
2023-01-19T22:13:51.849Z,3.12
2023-01-19T22:16:00.673Z,3.01
2023-01-19T22:18:05.385Z,2.90
2023-01-19T22:20:10.317Z,2.87
2023-01-19T22:22:14.877Z,2.96
2023-01-19T22:24:18.244Z,2.99
2023-01-19T22:26:22.190Z,3.01
2023-01-19T22:28:25.456Z,2.97
2023-01-19T22:30:28.946Z,3.13
2023-01-19T22:32:32.752Z,3.17
2023-01-19T22:34:37.547Z,3.26
2023-01-19T22:36:40.953Z,3.31
2023-01-19T22:38:45.514Z,3.20
2023-01-19T22:40:48.928Z,3.35
2023-01-19T22:42:52.274Z,3.36
2023-01-19T22:44:55.550Z,3.37
2023-01-19T22:46:58.844Z,3.41
2023-01-19T22:49:02.800Z,3.41
2023-01-19T22:51:07.660Z,3.41
2023-01-19T22:53:10.948Z,3.39
2023-01-19T22:55:14.496Z,3.40
2023-01-19T22:57:18.057Z,3.44
2023-01-19T22:59:21.398Z,3.46
2023-01-19T23:01:26.658Z,3.28
2023-01-19T23:03:30.359Z,3.44
2023-01-19T23:05:36.638Z,3.48
2023-01-19T23:07:41.310Z,3.49
2023-01-19T23:09:45.449Z,3.43
2023-01-19T23:11:50.623Z,3.32
2023-01-19T23:13:54.393Z,3.29
2023-01-19T23:15:58.705Z,3.38
2023-01-19T23:18:02.151Z,3.39
2023-01-19T23:20:06.566Z,3.35
2023-01-19T23:22:09.883Z,3.33
2023-01-19T23:24:14.562Z,3.35
2023-01-19T23:26:19.714Z,3.31
2023-01-19T23:28:22.992Z,3.33
2023-01-19T23:30:26.390Z,3.35
2023-01-19T23:32:29.761Z,3.32
2023-01-19T23:34:33.045Z,3.31
2023-01-19T23:36:38.565Z,3.26
2023-01-19T23:38:42.619Z,3.27
2023-01-19T23:40:47.342Z,3.27
2023-01-19T23:42:50.648Z,3.25
2023-01-19T23:44:53.992Z,3.21
2023-01-19T23:46:58.044Z,3.12
2023-01-19T23:49:01.721Z,3.15
2023-01-19T23:51:07.359Z,3.20
2023-01-19T23:53:10.661Z,3.26
2023-01-19T23:55:14.295Z,3.24
2023-01-19T23:57:19.088Z,3.29
2023-01-19T23:59:22.379Z,3.33
